Lucedale, Mississippi
Current Conditions -  °F | °C
As of 3:56 PM on Thursday 18 Dec 2014 (Local Time) from KMOB Reporting Station
Scattered Clouds Scattered Clouds  
Wind Chill: 62°   Ceiling: Unl
Heat Index: 62°   Visibility: 10mi
Dew Point: 43°   Wind: 5mph
Humidity: 50%   Direction: 80°E
Pressure: 30.13"   Gusts: NA
Location:  30.93°N, 88.59°W
Report Text: KMOB 182156Z 08004KT 10SM SCT110 SCT250 17/06 A3013 RMK AO2 SLP203 T01670061
Loading
Personal Weather Stations






























Interactive Weather Map New forecast layout! Learn more

10-Day Weather Forecast

Advertisements
Track Severe Weather on mobile